Ana Sayfa
METAR-TAF:

METAR-TAF

Havaalanları :

Dakar, Senegal

Enlem: 14-44N, Boylam: 017-30W, yükseklik: 27 m

Güncel hava durumu gözlemi

Rapor saat 20:00 UTC de 23 dakika önce yapıldı.
Rüzgar kuzeydan 12 kt
Sıcaklık 21°C
Nem 88%
Basınç 1012 hPa
Görüş mesafesi: 8000 m

METAR: GOOY 232000Z 36012KT 8000 NSC 21/19 Q1012

Saat: 20:23 (20:23 UTC)

Tahmin

Rapor saat 17:30 UTC de 2 saat ve 53 dakika önce yapıldı.
Ayın 23'si saat 18 UTC'den ayın 24'si saat 24 UTC'ye kadar geçerli Tahmin
Rüzgar kuzeydan 14 kt
Görüş mesafesi 10 km veya daha fazla
1500 m altında bulut yok ve kümülonimbus yok

TAF: GOOY 231730Z 2318/2424 35014KT CAVOK

4.000'den fazla havaalanı için hava durumu gözlemleri ve tahminleri (METAR ve TAF raporları).

Kullanılabilir istasyonlar harita üzerinde sarı ve kırmızı noktalarla gösterilir.

İstasyonun adını görmek için fareyi noktanın üzerinde gezdirin.

Sonrasında hava gözlem ve tahminlerini görmek için tıklayın.

Haritayı değiştirmek için: yaklaştırmak için siyah artı işaretli yeşil düğmeye ve uzaklaştırmak için de eksi işaretli düğmeye hızla tıklayın; bitişik haritalar için yeşil okları kullanın.


METAR-TAF: